Time;durP1;ratioP1;P1;durP2;ratioP2;P2;SDS_P1;SDS_P2;PMS_P1;PMS_P2;Temp;Humidity;BMP_temperature;BMP_pressure;BME280_temperature;BME280_humidity;BME280_pressure;Samples;Min_cycle;Max_cycle;Signal;HPM_P1;HPM_P2
2022/04/30 00:02:15;;;;;;;20.55;8.80;;;;;;;6.96;100.00;102520.19;4977563;28;20038;-80
2022/04/30 00:04:42;;;;;;;26.30;9.48;;;;;;;6.86;100.00;102511.47;4996171;28;20047;-80
2022/04/30 00:07:09;;;;;;;30.67;9.25;;;;;;;6.86;100.00;102514.19;4997062;28;20058;-81
2022/04/30 00:09:36;;;;;;;20.67;8.90;;;;;;;6.80;100.00;102504.44;5011884;28;20038;-80
2022/04/30 00:12:02;;;;;;;29.02;8.75;;;;;;;6.73;100.00;102511.03;4978679;28;20038;-81
2022/04/30 00:14:29;;;;;;;24.85;8.55;;;;;;;6.71;100.00;102510.22;4997577;28;20022;-81
2022/04/30 00:16:54;;;;;;;27.80;9.32;;;;;;;6.75;100.00;102509.13;4965616;28;20038;-82
2022/04/30 00:19:21;;;;;;;24.33;8.50;;;;;;;6.68;100.00;102510.31;4992757;28;20041;-81
2022/04/30 00:21:47;;;;;;;25.63;8.38;;;;;;;6.51;100.00;102485.53;4975469;28;20061;-82
2022/04/30 00:24:13;;;;;;;24.35;8.70;;;;;;;6.60;100.00;102502.41;4974558;28;20039;-82
2022/04/30 00:26:38;;;;;;;25.92;8.77;;;;;;;6.53;100.00;102502.72;4984057;28;20072;-81
2022/04/30 00:29:04;;;;;;;21.88;9.25;;;;;;;6.55;100.00;102498.09;4989699;28;20070;-81
2022/04/30 00:31:30;;;;;;;17.92;7.43;;;;;;;6.60;100.00;102501.53;4985414;28;20118;-81
2022/04/30 00:33:56;;;;;;;21.60;8.10;;;;;;;6.47;100.00;102497.47;4975367;28;20058;-81
2022/04/30 00:36:22;;;;;;;22.90;9.35;;;;;;;6.42;100.00;102503.09;4992563;28;20386;-81
2022/04/30 00:38:48;;;;;;;19.80;7.78;;;;;;;6.50;100.00;102509.13;4973773;28;20041;-82
2022/04/30 00:41:15;;;;;;;20.20;8.88;;;;;;;6.47;100.00;102500.19;4991699;28;20057;-81
2022/04/30 00:43:45;;;;;;;21.10;8.52;;;;;;;6.46;100.00;102501.13;4996720;28;20136;-80
2022/04/30 00:46:14;;;;;;;19.00;8.80;;;;;;;6.45;100.00;102502.97;4995221;28;20081;-81
2022/04/30 00:48:41;;;;;;;18.60;8.80;;;;;;;6.41;100.00;102502.19;4980728;28;20389;-80
2022/04/30 00:51:15;;;;;;;18.58;7.88;;;;;;;6.31;100.00;102489.84;4997311;28;20065;-81
2022/04/30 00:53:45;;;;;;;19.67;8.25;;;;;;;6.32;100.00;102493.47;4998619;28;20142;-81
2022/04/30 00:56:12;;;;;;;18.80;8.77;;;;;;;6.32;100.00;102496.19;4987882;28;20081;-82
2022/04/30 00:58:41;;;;;;;17.13;8.02;;;;;;;6.34;100.00;102499.75;4978252;28;20046;-82
2022/04/30 01:01:08;;;;;;;18.45;7.93;;;;;;;6.30;100.00;102503.53;4981129;28;20065;-81
2022/04/30 01:03:33;;;;;;;18.70;7.50;;;;;;;6.21;100.00;102502.00;4977871;28;20030;-80
2022/04/30 01:06:00;;;;;;;21.83;7.82;;;;;;;6.18;100.00;102494.84;4995506;28;20053;-80
2022/04/30 01:08:27;;;;;;;16.88;7.25;;;;;;;6.18;100.00;102492.13;5011185;28;20039;-81
2022/04/30 01:10:55;;;;;;;25.83;8.20;;;;;;;6.25;100.00;102498.25;5012346;28;20106;-81
2022/04/30 01:13:20;;;;;;;15.88;6.68;;;;;;;6.19;100.00;102487.56;4994466;28;20034;-81
2022/04/30 01:15:46;;;;;;;18.48;6.97;;;;;;;6.10;100.00;102491.50;4979344;28;20561;-81
2022/04/30 01:18:12;;;;;;;14.00;6.75;;;;;;;6.10;100.00;102491.50;4996799;28;20030;-82
2022/04/30 01:20:42;;;;;;;13.57;6.65;;;;;;;6.13;100.00;102493.19;4980740;28;20058;-81
2022/04/30 01:23:08;;;;;;;19.10;7.20;;;;;;;5.93;100.00;102463.94;5010079;28;20041;-81
2022/04/30 01:25:34;;;;;;;20.08;7.40;;;;;;;6.09;100.00;102486.09;4980449;28;20038;-81
2022/04/30 01:28:01;;;;;;;15.50;6.25;;;;;;;5.99;100.00;102482.81;4997578;28;20038;-81
2022/04/30 01:30:28;;;;;;;18.33;7.00;;;;;;;6.00;100.00;102482.75;4974101;28;20632;-82
2022/04/30 01:38:22;;;;;;;12.50;6.60;;;;;;;5.97;100.00;102480.13;4971727;28;20070;-81
2022/04/30 01:40:48;;;;;;;13.15;6.47;;;;;;;5.86;100.00;102477.72;4994113;28;20037;-81
2022/04/30 01:43:15;;;;;;;17.58;6.22;;;;;;;5.88;100.00;102477.69;4983732;28;20463;-80
2022/04/30 01:45:44;;;;;;;21.40;6.35;;;;;;;5.91;100.00;102474.88;4985917;28;20477;-80
2022/04/30 01:48:14;;;;;;;13.65;6.50;;;;;;;5.86;100.00;102476.84;4990000;28;20483;-81
2022/04/30 01:50:41;;;;;;;13.65;6.03;;;;;;;5.78;100.00;102478.94;4958629;28;20494;-81
2022/04/30 01:53:07;;;;;;;19.90;6.40;;;;;;;5.73;100.00;102467.34;4987903;28;20592;-82
2022/04/30 01:55:33;;;;;;;11.32;4.95;;;;;;;5.77;100.00;102466.28;4990644;28;20058;-81
2022/04/30 01:57:58;;;;;;;18.58;6.10;;;;;;;5.73;100.00;102472.75;4995547;28;20044;-82
2022/04/30 02:00:25;;;;;;;19.48;6.25;;;;;;;5.73;100.00;102476.38;4980476;28;20121;-81
2022/04/30 02:02:54;;;;;;;10.82;6.03;;;;;;;5.76;100.00;102483.53;4997870;28;20026;-82
2022/04/30 02:05:21;;;;;;;16.20;6.25;;;;;;;5.75;100.00;102474.47;4979727;28;20061;-81
2022/04/30 02:07:57;;;;;;;14.75;6.13;;;;;;;5.64;100.00;102460.34;4967096;28;20043;-81
2022/04/30 02:10:24;;;;;;;15.63;6.65;;;;;;;5.56;100.00;102471.47;4962481;28;20118;-82
2022/04/30 02:12:51;;;;;;;18.90;6.63;;;;;;;5.63;100.00;102464.91;4972379;28;20034;-82
2022/04/30 02:15:19;;;;;;;12.20;6.05;;;;;;;5.62;100.00;102464.94;4984137;28;20027;-80
2022/04/30 02:17:46;;;;;;;10.65;5.70;;;;;;;5.60;100.00;102474.97;4999853;28;20651;-82
2022/04/30 02:20:24;;;;;;;13.07;5.85;;;;;;;5.58;100.00;102464.16;4991399;28;20050;-82
2022/04/30 02:22:52;;;;;;;10.48;6.15;;;;;;;5.47;100.00;102467.22;4997946;28;20084;-82
2022/04/30 02:25:18;;;;;;;12.23;6.05;;;;;;;5.43;100.00;102470.97;5002367;28;20031;-83
2022/04/30 02:27:52;;;;;;;18.27;6.25;;;;;;;5.39;100.00;102473.84;4997893;28;20616;-82
2022/04/30 02:30:20;;;;;;;11.65;5.93;;;;;;;5.40;100.00;102470.19;4978158;28;20409;-83
2022/04/30 02:32:49;;;;;;;17.20;6.05;;;;;;;5.42;100.00;102471.03;4990377;28;20057;-82
2022/04/30 02:35:20;;;;;;;16.40;6.35;;;;;;;5.39;100.00;102468.41;5001597;28;20424;-82
2022/04/30 02:37:49;;;;;;;9.77;6.05;;;;;;;5.36;100.00;102457.63;5002089;28;20058;-82
2022/04/30 02:40:16;;;;;;;13.15;6.55;;;;;;;5.31;100.00;102464.13;5003026;28;20116;-81
2022/04/30 02:42:42;;;;;;;16.48;6.95;;;;;;;5.32;100.00;102462.28;4996671;28;20393;-82
2022/04/30 02:45:09;;;;;;;16.20;7.00;;;;;;;5.37;100.00;102454.88;4997111;28;20027;-82
2022/04/30 02:47:40;;;;;;;12.18;6.85;;;;;;;5.25;100.00;102448.00;4989654;28;20034;-83
2022/04/30 02:50:07;;;;;;;19.85;6.78;;;;;;;5.25;100.00;102457.97;4978210;28;20035;-82
2022/04/30 02:52:33;;;;;;;18.42;6.75;;;;;;;5.22;100.00;102445.38;4979383;28;20121;-82
2022/04/30 02:54:59;;;;;;;14.27;6.95;;;;;;;5.22;100.00;102455.34;4980144;28;20113;-82
2022/04/30 02:57:24;;;;;;;11.85;6.57;;;;;;;5.22;100.00;102456.22;4963189;28;20117;-82
2022/04/30 02:59:57;;;;;;;14.77;6.25;;;;;;;5.21;100.00;102451.72;4988708;28;20053;-83
2022/04/30 03:02:22;;;;;;;14.07;6.60;;;;;;;5.20;100.00;102440.91;4980339;28;20066;-82
2022/04/30 03:04:51;;;;;;;17.33;6.57;;;;;;;5.20;100.00;102447.25;5000434;28;20433;-83
2022/04/30 03:07:22;;;;;;;18.95;7.15;;;;;;;5.12;100.00;102436.63;4989169;28;20046;-83
2022/04/30 03:09:49;;;;;;;11.88;6.88;;;;;;;5.13;100.00;102445.66;4984985;28;20125;-83
2022/04/30 03:12:15;;;;;;;13.57;7.20;;;;;;;5.10;100.00;102438.50;4965918;28;20414;-82
2022/04/30 03:14:42;;;;;;;12.13;6.72;;;;;;;5.09;100.00;102442.13;4985625;28;20042;-83
2022/04/30 03:22:37;;;;;;;14.57;7.15;;;;;;;5.07;100.00;102432.28;4984758;28;20038;-81
2022/04/30 03:25:03;;;;;;;18.85;7.32;;;;;;;5.06;100.00;102430.50;4972497;28;20125;-81
2022/04/30 03:27:28;;;;;;;14.13;7.20;;;;;;;5.11;100.00;102444.81;4981891;28;20486;-82
2022/04/30 03:29:54;;;;;;;15.85;7.90;;;;;;;5.05;100.00;102439.56;4999096;28;20046;-82
2022/04/30 03:32:20;;;;;;;12.95;6.85;;;;;;;5.08;100.00;102439.47;4997837;28;20042;-81
2022/04/30 03:34:46;;;;;;;17.02;6.63;;;;;;;5.05;100.00;102445.00;4998268;28;20177;-82
2022/04/30 03:37:13;;;;;;;11.95;7.18;;;;;;;5.03;100.00;102439.59;5010923;28;20405;-81
2022/04/30 03:39:39;;;;;;;10.43;6.22;;;;;;;4.91;100.00;102437.28;4973743;28;20042;-80
2022/04/30 03:42:05;;;;;;;20.52;7.22;;;;;;;4.81;100.00;102433.94;4963354;28;20105;-81
2022/04/30 03:44:30;;;;;;;16.60;7.25;;;;;;;4.73;100.00;102433.28;4995890;28;20046;-80
2022/04/30 03:46:56;;;;;;;12.07;7.30;;;;;;;4.75;100.00;102439.53;4957347;28;20035;-80
2022/04/30 03:49:21;;;;;;;15.98;7.55;;;;;;;4.77;100.00;102438.59;4993575;28;20471;-81
2022/04/30 03:51:47;;;;;;;14.38;7.03;;;;;;;4.74;100.00;102446.81;4972425;28;20034;-82
2022/04/30 03:54:12;;;;;;;14.98;7.45;;;;;;;4.69;100.00;102447.84;4965144;28;20038;-82
2022/04/30 03:56:38;;;;;;;15.43;7.40;;;;;;;4.71;100.00;102436.03;4978303;28;20041;-82
2022/04/30 03:59:03;;;;;;;19.80;7.28;;;;;;;4.73;100.00;102445.00;4979965;28;20098;-81
2022/04/30 04:01:29;;;;;;;13.95;7.15;;;;;;;4.64;100.00;102436.25;4992932;28;20035;-80
2022/04/30 04:03:54;;;;;;;16.05;7.13;;;;;;;4.77;100.00;102444.00;4996497;28;20049;-81
2022/04/30 04:06:20;;;;;;;23.33;7.72;;;;;;;4.81;100.00;102436.66;4954715;28;20050;-82
2022/04/30 04:08:52;;;;;;;14.23;7.40;;;;;;;4.83;100.00;102436.63;4959122;28;20034;-82
2022/04/30 04:11:18;;;;;;;14.88;7.20;;;;;;;4.82;100.00;102441.16;4962777;28;20406;-83
2022/04/30 04:19:13;;;;;;;15.82;6.68;;;;;;;4.71;100.00;102444.19;4996340;28;20050;-82
2022/04/30 04:21:38;;;;;;;19.95;7.45;;;;;;;4.79;100.00;102438.53;4936163;28;20081;-82
2022/04/30 04:26:48;;;;;;;16.75;7.32;;;;;;;4.68;100.00;102451.53;4981755;28;20049;-81
2022/04/30 04:29:16;;;;;;;23.50;7.72;;;;;;;4.78;100.00;102445.75;4965596;28;20449;-82
2022/04/30 04:31:44;;;;;;;20.00;7.40;;;;;;;4.81;100.00;102443.91;4975910;28;20066;-83
2022/04/30 04:34:10;;;;;;;13.73;6.93;;;;;;;4.68;100.00;102437.97;4993309;28;20054;-82
2022/04/30 04:36:36;;;;;;;18.23;7.57;;;;;;;4.58;100.00;102443.63;4994055;28;20023;-82
2022/04/30 04:39:13;;;;;;;17.58;8.00;;;;;;;4.67;100.00;102455.16;4986333;28;20042;-82
2022/04/30 04:41:40;;;;;;;17.90;7.72;;;;;;;4.53;100.00;102448.31;4994715;28;20045;-82
2022/04/30 04:44:06;;;;;;;18.85;7.70;;;;;;;4.57;100.00;102460.84;4988186;28;20057;-83
2022/04/30 04:46:32;;;;;;;20.52;7.70;;;;;;;4.67;100.00;102453.31;4963583;28;20034;-82
2022/04/30 04:48:58;;;;;;;16.45;7.55;;;;;;;4.78;100.00;102458.44;4993937;28;20034;-81
2022/04/30 04:51:23;;;;;;;14.27;7.47;;;;;;;4.87;100.00;102458.19;4996929;28;20445;-81
2022/04/30 04:53:49;;;;;;;17.58;8.02;;;;;;;4.71;100.00;102462.28;4938854;28;20031;-81
2022/04/30 04:56:15;;;;;;;15.90;8.13;;;;;;;4.85;100.00;102473.59;4980772;28;20046;-82
2022/04/30 04:58:41;;;;;;;14.10;8.02;;;;;;;4.75;100.00;102463.97;4982603;28;20037;-81
2022/04/30 05:01:07;;;;;;;17.02;7.20;;;;;;;4.76;100.00;102472.06;4984904;28;20058;-82
2022/04/30 05:03:33;;;;;;;22.10;8.73;;;;;;;4.77;100.00;102467.50;4982407;28;20034;-81
2022/04/30 05:05:58;;;;;;;15.43;7.88;;;;;;;4.73;100.00;102463.13;4980110;28;20065;-81
2022/04/30 05:08:24;;;;;;;26.30;8.18;;;;;;;4.92;100.00;102471.59;4978977;28;20026;-80
2022/04/30 05:10:49;;;;;;;15.95;7.95;;;;;;;4.99;100.00;102473.22;4972151;28;20050;-80
2022/04/30 05:13:15;;;;;;;21.42;9.00;;;;;;;4.99;100.00;102466.91;4972711;28;20038;-81
2022/04/30 05:15:41;;;;;;;18.60;8.43;;;;;;;4.94;100.00;102469.75;4996820;28;20046;-80
2022/04/30 05:18:07;;;;;;;22.08;8.45;;;;;;;5.08;100.00;102477.47;4946732;28;20026;-80
2022/04/30 05:20:33;;;;;;;19.92;7.90;;;;;;;5.09;100.00;102474.72;4996997;28;20090;-81
2022/04/30 05:22:59;;;;;;;17.75;8.98;;;;;;;5.05;100.00;102472.13;5009729;28;20069;-78
2022/04/30 05:25:24;;;;;;;18.58;8.57;;;;;;;5.10;100.00;102462.03;4973071;28;20039;-79
2022/04/30 05:27:50;;;;;;;19.55;8.65;;;;;;;5.29;100.00;102476.81;4963524;28;20034;-80
2022/04/30 05:30:16;;;;;;;19.27;8.13;;;;;;;5.45;100.00;102473.66;4988752;28;20625;-80
2022/04/30 05:32:41;;;;;;;17.17;8.98;;;;;;;5.38;100.00;102475.66;4992762;28;20034;-79
2022/04/30 05:35:07;;;;;;;20.45;8.55;;;;;;;5.49;100.00;102480.75;4965260;28;20030;-79
2022/04/30 05:37:32;;;;;;;19.50;9.15;;;;;;;5.47;100.00;102477.19;4992419;28;20387;-81
2022/04/30 05:39:58;;;;;;;18.38;8.57;;;;;;;5.56;100.00;102468.78;4978977;28;20041;-81
2022/04/30 05:42:24;;;;;;;21.02;9.27;;;;;;;5.73;100.00;102468.22;4974114;28;20474;-81
2022/04/30 05:44:49;;;;;;;20.67;8.85;;;;;;;5.93;100.00;102483.84;4981584;28;20060;-82
2022/04/30 05:47:19;;;;;;;21.25;9.13;;;;;;;6.17;100.00;102475.84;4972707;28;20127;-82
2022/04/30 05:49:45;;;;;;;18.80;8.27;;;;;;;6.49;100.00;102474.69;4998888;28;20034;-80
2022/04/30 05:52:11;;;;;;;17.65;9.02;;;;;;;6.57;100.00;102466.28;4976854;28;20035;-80
2022/04/30 05:54:37;;;;;;;16.20;8.38;;;;;;;6.98;100.00;102478.38;4997969;28;20034;-80
2022/04/30 05:57:03;;;;;;;23.77;8.57;;;;;;;7.08;100.00;102476.16;4995958;28;20034;-80
2022/04/30 05:59:29;;;;;;;19.80;7.72;;;;;;;7.36;100.00;102481.44;5007223;28;20030;-80
2022/04/30 06:01:55;;;;;;;16.30;7.65;;;;;;;7.43;100.00;102482.09;4981231;28;20038;-79
2022/04/30 06:04:21;;;;;;;12.65;7.95;;;;;;;7.66;100.00;102486.59;4996009;28;20166;-77
2022/04/30 06:06:46;;;;;;;17.80;7.88;;;;;;;7.74;100.00;102486.31;4981362;28;20054;-80
2022/04/30 06:09:12;;;;;;;16.77;8.25;;;;;;;7.96;100.00;102489.00;4998925;28;20034;-80
2022/04/30 06:11:38;;;;;;;21.55;8.45;;;;;;;8.26;100.00;102486.84;4955875;28;20038;-79
2022/04/30 06:14:03;;;;;;;17.35;7.72;;;;;;;8.45;100.00;102489.66;4972838;28;20053;-80
2022/04/30 06:16:29;;;;;;;18.77;8.05;;;;;;;8.53;100.00;102486.63;4986434;28;20042;-80
2022/04/30 06:18:54;;;;;;;14.55;7.07;;;;;;;8.85;100.00;102486.13;4950530;28;20397;-80
2022/04/30 06:21:22;;;;;;;13.10;7.38;;;;;;;9.09;100.00;102492.31;4971105;28;20117;-79
2022/04/30 06:23:47;;;;;;;10.55;7.03;;;;;;;8.81;100.00;102490.84;4996445;28;20067;-80
2022/04/30 06:26:13;;;;;;;13.90;7.03;;;;;;;8.57;100.00;102493.69;4993957;28;20046;-80
2022/04/30 06:28:39;;;;;;;14.85;7.00;;;;;;;9.06;100.00;102495.19;4976524;28;20043;-79
2022/04/30 06:31:04;;;;;;;18.40;6.65;;;;;;;9.20;100.00;102498.16;4977740;28;20043;-80
2022/04/30 06:33:30;;;;;;;9.88;6.05;;;;;;;9.56;100.00;102502.84;4958481;28;20042;-79
2022/04/30 06:35:56;;;;;;;11.20;6.63;;;;;;;9.50;100.00;102504.00;4981612;28;20034;-79
2022/04/30 06:38:21;;;;;;;11.57;5.88;;;;;;;9.75;100.00;102495.47;4981087;28;20057;-80
2022/04/30 06:40:48;;;;;;;16.35;6.47;;;;;;;10.26;100.00;102501.19;4996511;28;20038;-80
2022/04/30 06:43:14;;;;;;;11.85;6.38;;;;;;;9.41;100.00;102501.69;4995000;28;20041;-79
2022/04/30 06:45:39;;;;;;;10.73;5.80;;;;;;;9.99;100.00;102489.78;4979790;28;20051;-79
2022/04/30 06:48:06;;;;;;;14.50;6.25;;;;;;;10.39;100.00;102487.75;4972032;28;20066;-80
2022/04/30 06:50:31;;;;;;;13.23;6.05;;;;;;;10.41;100.00;102494.06;5010870;28;20406;-80
2022/04/30 06:58:25;;;;;;;12.15;6.13;;;;;;;10.88;100.00;102500.69;4998276;28;20060;-79
2022/04/30 07:03:27;;;;;;;14.55;6.00;;;;;;;11.06;100.00;102496.06;4990518;28;20042;-79
2022/04/30 07:05:56;;;;;;;10.68;5.47;;;;;;;11.17;100.00;102492.75;4977898;28;20640;-79
2022/04/30 07:08:22;;;;;;;10.20;5.88;;;;;;;11.03;100.00;102491.66;4984654;28;20061;-79
2022/04/30 07:10:47;;;;;;;10.65;6.10;;;;;;;11.49;100.00;102496.41;4992858;28;20034;-79
2022/04/30 07:13:13;;;;;;;11.52;5.18;;;;;;;11.42;100.00;102497.75;4978853;28;20046;-79
2022/04/30 07:15:38;;;;;;;10.85;5.10;;;;;;;11.66;100.00;102492.72;4992744;28;20035;-78
2022/04/30 07:18:04;;;;;;;8.05;5.22;;;;;;;11.64;100.00;102502.00;4982419;28;20034;-79
2022/04/30 07:20:29;;;;;;;8.82;4.75;;;;;;;11.86;100.00;102491.56;4979340;28;21412;-80
2022/04/30 07:22:55;;;;;;;8.20;4.63;;;;;;;12.18;99.99;102501.66;4977275;28;20105;-81
2022/04/30 07:25:20;;;;;;;7.57;4.45;;;;;;;12.52;99.09;102500.50;4979990;28;20053;-79
2022/04/30 07:27:46;;;;;;;9.90;4.88;;;;;;;12.77;94.38;102499.00;4998364;28;20046;-79
2022/04/30 07:30:11;;;;;;;8.52;4.50;;;;;;;12.41;94.44;102484.69;4996465;28;20051;-79
2022/04/30 07:32:40;;;;;;;11.38;4.70;;;;;;;12.22;98.23;102493.16;4956008;28;20464;-78
2022/04/30 07:35:06;;;;;;;7.18;4.65;;;;;;;12.40;94.32;102484.78;4998809;28;20093;-79
2022/04/30 07:37:32;;;;;;;10.82;5.10;;;;;;;13.14;90.60;102491.19;4998305;28;20065;-78
2022/04/30 07:39:58;;;;;;;15.55;4.90;;;;;;;12.22;94.41;102481.28;5005555;28;20046;-79
2022/04/30 07:42:24;;;;;;;7.78;4.20;;;;;;;12.48;94.23;102479.72;5002695;28;20041;-78
2022/04/30 07:44:49;;;;;;;5.88;3.92;;;;;;;13.23;91.70;102476.84;5002330;28;20031;-78
2022/04/30 07:47:15;;;;;;;7.70;4.22;;;;;;;14.37;86.41;102474.81;4984815;28;20459;-78
2022/04/30 07:49:41;;;;;;;8.02;4.40;;;;;;;13.42;86.26;102477.44;4988034;28;20324;-78
2022/04/30 07:52:07;;;;;;;10.02;4.35;;;;;;;13.35;84.45;102477.97;4998218;28;20073;-79
2022/04/30 07:54:33;;;;;;;6.72;3.85;;;;;;;13.13;86.71;102470.16;4975327;28;20062;-79
2022/04/30 07:57:02;;;;;;;8.45;4.38;;;;;;;13.86;83.66;102471.88;5023135;28;20030;-79
2022/04/30 07:59:28;;;;;;;9.32;4.13;;;;;;;13.65;86.53;102469.56;5000306;28;20073;-79
2022/04/30 08:01:54;;;;;;;6.65;3.10;;;;;;;13.46;84.08;102478.13;4973300;28;20045;-79
2022/04/30 08:04:20;;;;;;;7.78;4.00;;;;;;;14.67;77.48;102477.31;4978191;28;20031;-79
2022/04/30 08:06:45;;;;;;;6.10;3.08;;;;;;;14.66;73.03;102471.94;5007051;28;20047;-79
2022/04/30 08:09:11;;;;;;;5.32;3.30;;;;;;;14.90;74.03;102474.78;5006137;28;20061;-78
2022/04/30 08:11:36;;;;;;;6.45;3.70;;;;;;;13.81;76.02;102474.03;4990233;28;20041;-79
2022/04/30 08:14:02;;;;;;;5.68;3.33;;;;;;;13.97;75.40;102472.03;4982375;28;20031;-78
2022/04/30 08:16:28;;;;;;;4.68;3.05;;;;;;;14.30;74.38;102467.97;4996708;28;20046;-77
2022/04/30 08:18:54;;;;;;;5.03;2.78;;;;;;;14.66;69.55;102460.91;5016493;28;20425;-77
2022/04/30 08:21:20;;;;;;;9.63;3.33;;;;;;;14.72;69.42;102460.44;4966203;28;20034;-77
2022/04/30 08:23:45;;;;;;;8.43;2.55;;;;;;;14.95;67.09;102455.16;5000325;28;20109;-77
2022/04/30 08:26:11;;;;;;;6.75;3.10;;;;;;;14.96;67.17;102457.81;4984725;28;20058;-79
2022/04/30 08:28:36;;;;;;;5.65;3.25;;;;;;;14.37;70.46;102451.88;4978605;28;20565;-77
2022/04/30 08:31:01;;;;;;;4.45;2.85;;;;;;;14.99;68.50;102451.19;4984192;28;20482;-77
2022/04/30 08:33:28;;;;;;;6.03;3.40;;;;;;;15.22;68.44;102449.53;4969130;28;20119;-77
2022/04/30 08:35:55;;;;;;;4.72;2.97;;;;;;;15.30;67.37;102449.84;4985792;28;20098;-77
2022/04/30 08:38:21;;;;;;;4.75;2.90;;;;;;;15.77;64.36;102442.69;4987788;28;20049;-78
2022/04/30 08:40:46;;;;;;;5.57;3.20;;;;;;;15.24;67.04;102440.13;4994694;28;20034;-78
2022/04/30 08:43:14;;;;;;;5.07;2.90;;;;;;;15.42;66.72;102437.88;4996326;28;20066;-78
2022/04/30 08:45:47;;;;;;;4.70;2.90;;;;;;;16.29;64.65;102442.41;4997383;28;20585;-78
2022/04/30 08:48:14;;;;;;;6.40;3.33;;;;;;;16.32;62.80;102439.41;4987029;28;20034;-78
2022/04/30 08:50:42;;;;;;;7.38;2.75;;;;;;;15.97;64.46;102426.44;4985099;28;20069;-78
2022/04/30 08:53:09;;;;;;;5.20;2.67;;;;;;;16.28;63.95;102436.00;4994775;28;20034;-78
2022/04/30 08:55:35;;;;;;;4.95;3.03;;;;;;;15.47;62.01;102439.44;4982977;28;20165;-78
2022/04/30 08:58:01;;;;;;;3.35;2.35;;;;;;;16.77;59.79;102435.88;5008565;28;20061;-78
2022/04/30 09:00:28;;;;;;;4.35;2.15;;;;;;;15.76;59.84;102435.38;4985378;28;20033;-78
2022/04/30 09:02:59;;;;;;;6.43;2.45;;;;;;;14.89;59.51;102432.53;4998566;28;20057;-78
2022/04/30 09:05:37;;;;;;;3.95;2.40;;;;;;;13.69;65.46;102427.09;4978778;28;20053;-78
2022/04/30 09:08:05;;;;;;;5.78;2.42;;;;;;;13.60;66.78;102433.19;5001571;28;20046;-78
2022/04/30 09:10:33;;;;;;;4.47;2.30;;;;;;;13.32;66.50;102432.25;4967652;28;20451;-78
2022/04/30 09:13:16;;;;;;;3.92;2.55;;;;;;;12.47;69.88;102433.97;5004308;28;20033;-78
2022/04/30 09:15:46;;;;;;;4.88;2.30;;;;;;;12.95;68.82;102426.34;5002481;28;20022;-78
2022/04/30 09:18:15;;;;;;;2.95;2.25;;;;;;;12.74;68.59;102424.97;4988563;28;20026;-78
2022/04/30 09:20:51;;;;;;;6.57;2.17;;;;;;;14.37;63.47;102421.56;5003992;28;20031;-78
2022/04/30 09:23:25;;;;;;;3.92;2.00;;;;;;;15.62;59.59;102411.53;5000108;28;20035;-78
2022/04/30 09:25:53;;;;;;;6.32;2.53;;;;;;;15.71;58.14;102400.78;5010515;28;20524;-79
2022/04/30 09:28:30;;;;;;;8.43;3.47;;;;;;;15.72;57.54;102410.84;5004101;28;20078;-79
2022/04/30 09:31:13;;;;;;;4.43;3.70;;;;;;;15.70;60.31;102393.50;5004144;28;20096;-78
2022/04/30 09:33:54;;;;;;;5.57;3.47;;;;;;;14.71;67.67;102411.81;4995963;28;20030;-78
2022/04/30 09:39:17;;;;;;;10.18;4.03;;;;;;;13.91;69.63;102417.38;4983811;28;20047;-78
2022/04/30 09:41:43;;;;;;;9.30;4.93;;;;;;;13.47;70.13;102410.25;4994407;28;20030;-78
2022/04/30 09:44:10;;;;;;;9.10;4.60;;;;;;;13.62;70.32;102405.56;4979310;28;20056;-78
2022/04/30 09:46:38;;;;;;;8.10;4.63;;;;;;;13.72;71.74;102409.47;4994080;28;20503;-77
2022/04/30 09:54:36;;;;;;;11.00;3.92;;;;;;;13.47;70.78;102400.09;4999682;28;20039;-78
2022/04/30 09:57:04;;;;;;;7.43;4.47;;;;;;;13.52;71.16;102408.06;5013611;28;20398;-77
2022/04/30 09:59:31;;;;;;;8.52;3.85;;;;;;;13.45;68.56;102396.56;4970789;28;20046;-78
2022/04/30 10:01:58;;;;;;;5.85;3.40;;;;;;;13.32;69.09;102387.34;4994551;28;20038;-78
2022/04/30 10:04:24;;;;;;;8.50;3.67;;;;;;;13.65;67.26;102380.59;4984556;28;20042;-77
2022/04/30 10:06:51;;;;;;;7.55;3.20;;;;;;;13.67;66.56;102384.13;4982410;28;20046;-78
2022/04/30 10:09:21;;;;;;;8.15;2.83;;;;;;;13.57;65.10;102387.47;4996264;28;20043;-77
2022/04/30 10:11:56;;;;;;;8.35;3.60;;;;;;;13.73;64.61;102387.34;4999207;28;20102;-78
2022/04/30 10:15:04;;;;;;;9.32;4.55;;;;;;;13.58;67.46;102394.75;4997741;28;20122;-78
2022/04/30 10:17:33;;;;;;;8.63;4.30;;;;;;;13.76;69.15;102392.63;4958514;28;20118;-77
2022/04/30 10:20:13;;;;;;;10.30;5.32;;;;;;;13.05;81.86;102390.91;4980716;28;20034;-78
2022/04/30 10:22:52;;;;;;;18.10;5.25;;;;;;;12.83;84.67;102389.53;4997915;28;20033;-78
2022/04/30 10:25:31;;;;;;;15.93;6.15;;;;;;;12.50;88.35;102392.56;4998278;28;20034;-78
2022/04/30 10:27:56;;;;;;;15.80;6.10;;;;;;;12.52;88.77;102390.59;4998603;28;20034;-78
2022/04/30 10:30:29;;;;;;;15.50;6.10;;;;;;;12.77;86.32;102389.06;4995942;28;20033;-78
2022/04/30 10:32:58;;;;;;;16.88;6.90;;;;;;;13.20;83.86;102387.16;4981987;28;20034;-77
2022/04/30 10:35:38;;;;;;;22.08;5.80;;;;;;;13.24;82.39;102380.47;4990999;28;20039;-77
2022/04/30 10:38:18;;;;;;;12.65;5.63;;;;;;;13.75;79.61;102387.25;4983804;28;20105;-78
2022/04/30 10:40:58;;;;;;;15.30;4.97;;;;;;;13.76;76.75;102383.50;5004795;28;20045;-78
2022/04/30 10:43:27;;;;;;;18.45;5.00;;;;;;;13.69;76.69;102384.88;4982364;28;20440;-78
2022/04/30 10:45:55;;;;;;;11.88;5.03;;;;;;;13.78;77.71;102384.28;4994838;28;20030;-78
2022/04/30 10:48:21;;;;;;;12.15;5.55;;;;;;;13.73;76.43;102381.84;5018328;28;20069;-78
2022/04/30 10:50:51;;;;;;;7.78;4.63;;;;;;;14.02;71.25;102376.22;4976803;28;20038;-78
2022/04/30 10:53:22;;;;;;;14.60;4.45;;;;;;;14.08;69.55;102370.25;4990737;28;20037;-78
2022/04/30 10:55:49;;;;;;;8.63;4.22;;;;;;;14.13;69.48;102370.84;4990449;28;20030;-78
2022/04/30 10:58:24;;;;;;;11.68;5.13;;;;;;;13.94;73.17;102370.34;4999364;28;20496;-77
2022/04/30 11:00:51;;;;;;;16.00;5.40;;;;;;;13.97;75.29;102360.00;5006445;28;20038;-77
2022/04/30 11:03:17;;;;;;;20.52;6.35;;;;;;;13.77;76.38;102363.22;4999335;28;20045;-78
2022/04/30 11:05:43;;;;;;;13.70;5.03;;;;;;;14.10;75.55;102362.78;4986933;28;20305;-78
2022/04/30 11:08:09;;;;;;;11.90;4.97;;;;;;;14.50;70.76;102361.81;4960125;28;20038;-78
2022/04/30 11:10:35;;;;;;;11.75;5.05;;;;;;;14.19;75.09;102352.09;5011565;28;20045;-78
2022/04/30 11:13:05;;;;;;;8.10;5.25;;;;;;;14.29;73.91;102353.22;5003308;28;20045;-78
2022/04/30 11:15:30;;;;;;;12.75;5.45;;;;;;;14.59;74.65;102350.16;4984712;28;20041;-78
2022/04/30 11:17:58;;;;;;;14.50;6.07;;;;;;;14.14;73.99;102353.31;4988258;28;20030;-78
2022/04/30 11:20:24;;;;;;;13.13;5.43;;;;;;;13.96;74.67;102349.09;4989984;28;20030;-78
2022/04/30 11:22:54;;;;;;;11.40;6.63;;;;;;;14.91;71.63;102346.06;5005480;28;20030;-78
2022/04/30 11:25:20;;;;;;;12.15;6.03;;;;;;;14.67;69.61;102338.56;5010372;28;20062;-78
2022/04/30 11:27:46;;;;;;;8.75;4.38;;;;;;;14.93;68.29;102341.31;4981297;28;20532;-78
2022/04/30 11:30:12;;;;;;;11.63;5.45;;;;;;;14.92;67.45;102336.78;5008259;28;20038;-78
2022/04/30 11:32:37;;;;;;;15.02;5.82;;;;;;;14.51;70.37;102338.75;5000959;28;20042;-78
2022/04/30 11:35:04;;;;;;;10.82;5.70;;;;;;;14.41;70.95;102338.53;4988991;28;20062;-78
2022/04/30 11:37:42;;;;;;;16.58;5.28;;;;;;;14.08;70.44;102337.19;5018652;28;20097;-77
2022/04/30 11:40:09;;;;;;;14.05;7.43;;;;;;;13.77;75.51;102335.69;5000318;28;20057;-78
2022/04/30 11:42:34;;;;;;;16.45;7.60;;;;;;;13.77;76.25;102336.59;5000579;28;20486;-78
2022/04/30 11:45:00;;;;;;;14.98;7.32;;;;;;;13.81;76.85;102329.00;4999129;28;20046;-77
2022/04/30 11:47:26;;;;;;;18.83;7.75;;;;;;;13.88;76.65;102319.31;4996311;28;20042;-78
2022/04/30 11:50:09;;;;;;;18.65;7.30;;;;;;;13.58;74.65;102327.84;4980095;28;20044;-78
2022/04/30 11:52:35;;;;;;;19.92;7.97;;;;;;;13.96;74.11;102322.41;4987024;28;20136;-78
2022/04/30 11:55:06;;;;;;;10.98;6.93;;;;;;;14.03;75.81;102322.88;4993993;28;20094;-78
2022/04/30 11:57:33;;;;;;;29.13;7.20;;;;;;;13.77;74.90;102314.59;4994494;28;20438;-78